Altamont, North Carolina
Current Conditions -  °F | °C
As of 4:55 PM on Tuesday 25 Nov 2014 (Local Time) from KTNB Reporting Station
Clear Clear  
Wind Chill: 44°   Ceiling: Unl
Heat Index: 48°   Visibility: 10mi
Dew Point: 14°   Wind: 7mph
Humidity: 26%   Direction: 270°W
Pressure: 30.04"   Gusts: NA
Location:  36.0227°N, 81.9499°W
Report Text: KTNB 252155Z AUTO 27006KT 10SM CLR 09/M10 A3004 RMK AO2 T00871102
Loading
Personal Weather Stations






























Interactive Weather Map New forecast layout! Learn more

10-Day Weather Forecast

Advertisements
Track Severe Weather on mobile